Time;durP1;ratioP1;P1;durP2;ratioP2;P2;SDS_P1;SDS_P2;PMS_P1;PMS_P2;Temp;Humidity;BMP_temperature;BMP_pressure;BME280_temperature;BME280_humidity;BME280_pressure;Samples;Min_cycle;Max_cycle;Signal;HPM_P1;HPM_P2
2022/01/16 00:00:19;;;;;;;1.80;0.55;;;;;;;-0.73;100.00;100682.48;1723013;83;21142;-90
2022/01/16 00:05:29;;;;;;;1.02;0.60;;;;;;;-0.69;100.00;100687.72;1722840;83;20956;-89
2022/01/16 00:07:56;;;;;;;1.07;0.50;;;;;;;-0.64;100.00;100691.15;1664104;84;21047;-89
2022/01/16 00:10:25;;;;;;;1.02;0.45;;;;;;;-0.60;100.00;100696.38;1664543;86;21138;-91
2022/01/16 00:12:52;;;;;;;1.42;0.65;;;;;;;-0.56;100.00;100699.81;1664493;86;21067;-90
2022/01/16 00:15:22;;;;;;;1.17;0.68;;;;;;;-0.52;100.00;100694.96;1664123;86;21551;-90
2022/01/16 00:20:18;;;;;;;2.55;0.75;;;;;;;-0.44;100.00;100692.22;1668783;86;21150;-91
2022/01/16 00:22:46;;;;;;;0.88;0.57;;;;;;;-0.40;100.00;100700.61;1669177;84;21160;-89
2022/01/16 00:25:12;;;;;;;3.55;0.70;;;;;;;-0.37;100.00;100698.40;1669735;84;21123;-88
2022/01/16 00:27:41;;;;;;;2.10;0.60;;;;;;;-0.34;100.00;100705.16;1669189;86;21083;-90
2022/01/16 00:30:09;;;;;;;1.25;0.60;;;;;;;-0.30;100.00;100709.06;1668453;86;21579;-89
2022/01/16 00:32:35;;;;;;;2.98;0.70;;;;;;;-0.28;100.00;100697.28;1668968;86;21637;-90
2022/01/16 00:35:02;;;;;;;1.80;0.60;;;;;;;-0.25;100.00;100692.94;1668672;86;21110;-88
2022/01/16 00:37:28;;;;;;;1.70;0.60;;;;;;;-0.21;100.00;100693.38;1668852;86;21071;-90
2022/01/16 00:39:54;;;;;;;2.00;0.50;;;;;;;-0.19;100.00;100699.32;1668969;84;20888;-88
2022/01/16 00:42:22;;;;;;;1.70;0.50;;;;;;;-0.15;100.00;100694.47;1669058;86;20964;-89
2022/01/16 00:44:49;;;;;;;1.65;0.42;;;;;;;-0.13;100.00;100695.11;1668722;86;21475;-90
2022/01/16 00:47:16;;;;;;;1.07;0.47;;;;;;;-0.11;100.00;100691.78;1669050;86;21198;-90
2022/01/16 00:49:42;;;;;;;2.30;0.95;;;;;;;-0.09;100.00;100693.71;1668254;86;21023;-89
2022/01/16 00:52:09;;;;;;;3.27;0.95;;;;;;;-0.07;100.00;100687.73;1668949;86;20983;-89
2022/01/16 00:54:37;;;;;;;2.10;0.95;;;;;;;-0.04;100.00;100682.88;1668723;84;21087;-89
2022/01/16 00:57:04;;;;;;;1.32;0.60;;;;;;;-0.01;100.00;100695.74;1668923;86;21087;-89
2022/01/16 00:59:30;;;;;;;2.98;0.80;;;;;;;0.01;100.00;100694.24;1668778;84;21429;-90
2022/01/16 01:01:57;;;;;;;2.17;0.90;;;;;;;0.04;100.00;100695.70;1668399;85;21094;-92
2022/01/16 01:04:23;;;;;;;1.80;0.82;;;;;;;0.06;100.00;100703.78;1671032;85;21142;-89
2022/01/16 01:06:51;;;;;;;1.98;0.80;;;;;;;0.09;100.00;100703.88;1674077;85;21256;-89
2022/01/16 01:09:19;;;;;;;1.85;0.98;;;;;;;0.10;100.00;100714.31;1659885;85;21729;-89
2022/01/16 01:11:48;;;;;;;1.15;0.70;;;;;;;0.10;100.00;100714.31;1660979;84;22062;-89
2022/01/16 01:14:19;;;;;;;1.65;0.80;;;;;;;0.13;100.00;100708.63;1652863;86;21477;-90
2022/01/16 01:16:55;;;;;;;1.90;0.80;;;;;;;0.14;100.00;100721.37;1652703;86;21047;-89
2022/01/16 01:19:28;;;;;;;1.87;0.80;;;;;;;0.16;100.00;100728.13;1686817;84;21038;-90
2022/01/16 01:21:54;;;;;;;1.80;0.75;;;;;;;0.17;100.00;100752.28;1695880;84;21600;-89
2022/01/16 01:24:20;;;;;;;1.22;0.60;;;;;;;0.13;100.00;100760.30;1695677;84;21138;-89
2022/01/16 01:26:55;;;;;;;2.30;0.90;;;;;;;0.21;100.00;100783.22;1695820;84;21571;-91
2022/01/16 01:29:19;;;;;;;2.58;0.80;;;;;;;0.24;100.00;100818.62;1691942;84;21035;-90
2022/01/16 01:31:44;;;;;;;1.87;0.80;;;;;;;0.27;100.00;100855.86;1695717;84;21644;-89
2022/01/16 01:34:11;;;;;;;7.12;1.07;;;;;;;0.30;100.00;100862.94;1695783;84;21126;-91
2022/01/16 01:36:37;;;;;;;3.85;1.20;;;;;;;0.33;100.00;100854.61;1695881;84;21167;-88
2022/01/16 01:39:03;;;;;;;2.27;1.00;;;;;;;0.33;100.00;100760.52;1695934;84;21048;-89
2022/01/16 01:41:29;;;;;;;2.65;0.70;;;;;;;0.35;100.00;100675.49;1696109;84;21027;-88
2022/01/16 01:52:10;;;;;;;1.95;1.00;;;;;;;0.37;100.00;100615.98;1678564;84;20988;-89
2022/01/16 01:54:36;;;;;;;2.45;0.85;;;;;;;0.37;100.00;100729.95;1695726;84;21515;-89
2022/01/16 01:57:02;;;;;;;2.22;0.90;;;;;;;0.38;100.00;100748.85;1695888;83;21202;-89
2022/01/16 01:59:28;;;;;;;3.90;1.10;;;;;;;0.40;100.00;100771.17;1695516;84;21587;-88
2022/01/16 02:01:54;;;;;;;2.47;1.00;;;;;;;0.40;100.00;100724.28;1695575;84;20997;-89
2022/01/16 02:04:20;;;;;;;3.33;1.10;;;;;;;0.42;100.00;100704.22;1695720;84;21693;-89
2022/01/16 02:06:47;;;;;;;4.35;1.17;;;;;;;0.43;100.00;100749.59;1695709;84;21063;-89
2022/01/16 02:09:13;;;;;;;4.50;1.37;;;;;;;0.43;100.00;100741.13;1695709;83;21067;-89
2022/01/16 02:11:39;;;;;;;2.98;1.07;;;;;;;0.44;100.00;100747.25;1695803;84;21582;-91
2022/01/16 02:14:26;;;;;;;3.60;1.20;;;;;;;0.44;100.00;100724.23;1695768;84;21075;-90
2022/01/16 02:28:22;;;;;;;2.95;1.10;;;;;;;0.47;100.00;100736.77;1695504;83;21068;-90
2022/01/16 02:36:31;;;;;;;1.87;1.02;;;;;;;0.48;100.00;100759.64;1695546;84;21995;-89
2022/01/16 02:39:01;;;;;;;3.60;0.82;;;;;;;0.48;100.00;100775.04;1678902;83;21063;-89
2022/01/16 02:41:27;;;;;;;4.35;1.02;;;;;;;0.48;100.00;100776.88;1603628;89;21213;-89
2022/01/16 02:43:55;;;;;;;2.58;1.15;;;;;;;0.50;100.00;100780.13;1604219;89;20930;-88
2022/01/16 02:48:49;;;;;;;8.60;0.98;;;;;;;0.51;100.00;100790.56;1603985;89;21053;-89
2022/01/16 02:51:19;;;;;;;3.20;0.93;;;;;;;0.53;100.00;100764.70;1603897;89;21672;-89
2022/01/16 02:53:47;;;;;;;3.15;1.10;;;;;;;0.55;100.00;100768.47;1604283;89;21215;-90
2022/01/16 02:56:14;;;;;;;3.50;1.00;;;;;;;0.56;100.00;100774.07;1582180;89;21150;-89
2022/01/16 02:58:41;;;;;;;1.92;0.98;;;;;;;0.58;100.00;100792.77;1604149;89;21192;-89
2022/01/16 03:01:07;;;;;;;1.85;0.90;;;;;;;0.58;100.00;100782.67;1604102;89;21045;-89
2022/01/16 03:03:36;;;;;;;2.60;1.12;;;;;;;0.58;100.00;100790.63;1603970;89;21620;-89
2022/01/16 03:06:02;;;;;;;2.27;0.95;;;;;;;0.58;100.00;100785.32;1604137;89;21229;-90
2022/01/16 03:08:28;;;;;;;2.72;0.70;;;;;;;0.58;100.00;100803.88;1604073;89;21596;-89
2022/01/16 03:11:10;;;;;;;2.22;0.85;;;;;;;0.58;100.00;100801.23;1604166;89;20919;-89
2022/01/16 03:13:22;;;;;;;1.98;0.98;;;;;;;0.57;100.00;100803.06;1579071;89;21090;-89
2022/01/16 03:15:52;;;;;;;2.45;0.90;;;;;;;0.58;100.00;100800.72;1604522;89;21111;-89
2022/01/16 03:23:31;;;;;;;2.62;0.78;;;;;;;0.62;100.00;100798.53;1601253;89;21121;-88
2022/01/16 03:25:57;;;;;;;1.80;1.15;;;;;;;0.60;100.00;100806.66;1601480;89;21090;-91
2022/01/16 03:28:25;;;;;;;4.15;0.93;;;;;;;0.60;100.00;100810.64;1601724;89;21040;-89
2022/01/16 03:30:55;;;;;;;3.45;1.07;;;;;;;0.61;100.00;100811.45;1580724;89;21059;-91
2022/01/16 03:33:22;;;;;;;3.35;1.00;;;;;;;0.61;100.00;100810.13;1564063;91;21050;-89
2022/01/16 03:35:49;;;;;;;3.22;0.98;;;;;;;0.62;100.00;100822.41;1564585;91;21133;-89
2022/01/16 03:38:15;;;;;;;2.40;0.95;;;;;;;0.61;100.00;100824.20;1569440;89;21108;-90
2022/01/16 03:40:42;;;;;;;2.10;0.88;;;;;;;0.62;100.00;100825.87;1581788;90;21663;-88
2022/01/16 03:43:13;;;;;;;1.55;0.90;;;;;;;0.63;100.00;100828.83;1581382;90;21153;-89
2022/01/16 03:45:39;;;;;;;2.20;1.00;;;;;;;0.64;100.00;100834.94;1606612;88;21185;-90
2022/01/16 03:48:05;;;;;;;4.75;0.80;;;;;;;0.64;100.00;100833.62;1608403;89;21108;-90
2022/01/16 03:50:32;;;;;;;2.87;0.90;;;;;;;0.65;100.00;100836.09;1608324;89;21444;-90
2022/01/16 03:52:57;;;;;;;2.50;0.95;;;;;;;0.65;100.00;100840.08;1616830;86;21424;-90
2022/01/16 03:55:24;;;;;;;2.00;0.82;;;;;;;0.65;100.00;100833.45;1608361;87;21154;-90
2022/01/16 03:57:50;;;;;;;2.72;0.90;;;;;;;0.66;100.00;100838.23;1608279;88;21133;-90
2022/01/16 04:00:16;;;;;;;1.98;0.70;;;;;;;0.65;100.00;100843.23;1608251;89;21779;-89
2022/01/16 04:02:42;;;;;;;2.47;0.90;;;;;;;0.62;100.00;100839.64;1608463;89;20982;-90
2022/01/16 04:05:08;;;;;;;3.83;1.25;;;;;;;0.59;100.00;100843.48;1616034;87;21649;-90
2022/01/16 04:07:35;;;;;;;2.58;1.15;;;;;;;0.57;100.00;100843.34;1634094;87;21187;-89
2022/01/16 04:10:06;;;;;;;3.75;1.12;;;;;;;0.52;100.00;100842.57;1633946;87;21125;-89
2022/01/16 04:12:34;;;;;;;3.92;0.82;;;;;;;0.49;100.00;100839.48;1633476;87;21038;-90
2022/01/16 04:17:25;;;;;;;3.08;0.88;;;;;;;0.39;100.00;100848.56;1634601;87;20943;-89
2022/01/16 04:19:52;;;;;;;1.32;0.98;;;;;;;0.34;100.00;100844.31;1644841;86;21770;-90
2022/01/16 04:22:20;;;;;;;2.55;0.90;;;;;;;0.33;100.00;100844.01;1650839;86;21054;-89
2022/01/16 04:24:46;;;;;;;2.77;0.90;;;;;;;0.32;100.00;100849.48;1651232;86;21098;-90
2022/01/16 04:27:13;;;;;;;4.08;0.93;;;;;;;0.29;100.00;100851.18;1629600;86;21031;-89
2022/01/16 04:29:42;;;;;;;4.28;1.10;;;;;;;0.26;100.00;100850.22;1670474;83;21591;-90
2022/01/16 04:32:09;;;;;;;4.40;1.40;;;;;;;0.23;100.00;100849.58;1728225;83;21158;-90
2022/01/16 04:34:35;;;;;;;6.50;1.10;;;;;;;0.22;100.00;100861.20;1728110;82;21055;-90
2022/01/16 04:37:02;;;;;;;6.12;1.17;;;;;;;0.20;100.00;100861.88;1728393;83;21050;-90
2022/01/16 04:39:33;;;;;;;2.35;1.02;;;;;;;0.22;100.00;100863.03;1726471;83;21019;-89
2022/01/16 04:44:45;;;;;;;3.27;1.15;;;;;;;0.27;100.00;100871.25;1727671;83;21055;-89
2022/01/16 04:47:11;;;;;;;4.00;1.20;;;;;;;0.32;100.00;100874.15;1706800;82;21134;-89
2022/01/16 04:49:37;;;;;;;2.92;1.12;;;;;;;0.35;100.00;100879.59;1722593;83;20920;-90
2022/01/16 04:52:04;;;;;;;2.50;1.00;;;;;;;0.40;100.00;100875.88;1728184;83;21039;-92
2022/01/16 04:54:31;;;;;;;6.78;1.70;;;;;;;0.41;100.00;100878.36;1722470;82;21046;-90
2022/01/16 04:56:58;;;;;;;3.77;1.17;;;;;;;0.47;100.00;100888.70;1699077;84;21096;-90
2022/01/16 04:59:24;;;;;;;4.12;1.15;;;;;;;0.51;100.00;100892.64;1698734;84;20995;-89
2022/01/16 05:01:51;;;;;;;3.10;1.12;;;;;;;0.55;100.00;100892.58;1699110;84;21130;-89
2022/01/16 05:04:17;;;;;;;2.83;1.15;;;;;;;0.60;100.00;100901.31;1698466;84;21047;-90
2022/01/16 05:06:43;;;;;;;2.12;0.90;;;;;;;0.62;100.00;100902.77;1699227;84;21056;-92
2022/01/16 05:09:09;;;;;;;3.67;1.30;;;;;;;0.67;100.00;100908.31;1698963;84;21273;-89
2022/01/16 05:11:35;;;;;;;3.15;1.10;;;;;;;0.72;100.00;100916.23;1704240;83;21568;-90
2022/01/16 05:19:12;;;;;;;6.87;1.02;;;;;;;0.80;100.00;100933.37;1727739;82;21440;-89
2022/01/16 05:21:40;;;;;;;3.90;1.87;;;;;;;0.82;100.00;100932.14;1647170;86;21122;-89
2022/01/16 05:24:10;;;;;;;4.53;1.27;;;;;;;0.82;100.00;100937.45;1646799;86;21500;-92
2022/01/16 05:26:38;;;;;;;2.85;1.00;;;;;;;0.85;100.00;100940.23;1646862;85;21066;-87
2022/01/16 05:29:05;;;;;;;4.97;1.30;;;;;;;0.83;100.00;100937.79;1648652;86;21075;-90
2022/01/16 05:31:31;;;;;;;4.08;1.02;;;;;;;0.85;100.00;100945.54;1647967;87;21070;-90
2022/01/16 05:33:57;;;;;;;5.33;1.45;;;;;;;0.84;100.00;100947.89;1647650;87;21062;-89
2022/01/16 05:36:23;;;;;;;2.52;1.00;;;;;;;0.84;100.00;100953.19;1647658;85;20936;-90
2022/01/16 05:38:50;;;;;;;4.25;1.10;;;;;;;0.83;100.00;100952.37;1647869;86;21043;-93
2022/01/16 05:41:18;;;;;;;7.80;1.17;;;;;;;0.85;100.00;100954.83;1647466;86;21598;-89
2022/01/16 05:43:48;;;;;;;4.70;1.20;;;;;;;0.86;100.00;100955.16;1647758;85;21683;-89
2022/01/16 05:46:15;;;;;;;3.45;1.00;;;;;;;0.86;100.00;100951.19;1647783;86;21138;-89
2022/01/16 05:48:43;;;;;;;5.95;1.10;;;;;;;0.88;100.00;100947.34;1647008;86;21043;-88
2022/01/16 05:51:09;;;;;;;3.45;1.07;;;;;;;0.92;100.00;100945.13;1647751;86;21111;-90
2022/01/16 05:53:37;;;;;;;7.92;1.25;;;;;;;0.94;100.00;100960.84;1643885;86;20992;-92
2022/01/16 05:56:04;;;;;;;3.10;0.98;;;;;;;0.98;100.00;100968.77;1647440;86;21142;-90
2022/01/16 05:58:30;;;;;;;3.15;1.00;;;;;;;1.00;100.00;100976.02;1645013;86;21067;-92
2022/01/16 06:00:59;;;;;;;6.00;1.70;;;;;;;1.03;100.00;100976.48;1633423;86;21506;-89
2022/01/16 06:03:25;;;;;;;2.83;1.05;;;;;;;1.07;100.00;100983.56;1608112;87;21054;-90
2022/01/16 06:05:51;;;;;;;4.60;1.07;;;;;;;1.11;100.00;100986.14;1587161;89;21555;-89
2022/01/16 06:08:17;;;;;;;2.87;1.00;;;;;;;1.11;100.00;100986.96;1608127;89;20939;-90
2022/01/16 06:10:45;;;;;;;1.87;0.75;;;;;;;1.15;100.00;100990.09;1607981;88;21290;-88
2022/01/16 06:13:11;;;;;;;5.37;1.10;;;;;;;1.19;100.00;100988.69;1620975;86;21568;-89
2022/01/16 06:15:40;;;;;;;4.65;1.20;;;;;;;1.22;100.00;100999.44;1643980;86;20924;-91
2022/01/16 06:18:05;;;;;;;6.67;1.00;;;;;;;1.25;100.00;100993.23;1665131;83;21601;-90
2022/01/16 06:20:31;;;;;;;3.40;0.90;;;;;;;1.31;100.00;100998.30;1706218;83;21063;-92
2022/01/16 06:25:39;;;;;;;10.72;1.15;;;;;;;1.49;100.00;100994.70;1869383;76;22197;-90
2022/01/16 06:28:04;;;;;;;3.37;1.00;;;;;;;1.52;100.00;100998.81;1826014;77;20888;-90
2022/01/16 06:30:30;;;;;;;4.25;1.00;;;;;;;1.57;100.00;100999.06;1826152;78;21104;-90
2022/01/16 06:32:57;;;;;;;5.08;1.37;;;;;;;1.62;100.00;100998.00;1805526;78;21301;-90
2022/01/16 06:35:23;;;;;;;5.92;1.10;;;;;;;1.69;100.00;101006.02;1820834;78;20984;-91
2022/01/16 06:37:49;;;;;;;3.12;0.98;;;;;;;1.70;100.00;100999.68;1787763;78;20924;-90
2022/01/16 06:40:15;;;;;;;4.62;1.05;;;;;;;1.73;100.00;101006.75;1824432;78;21062;-90
2022/01/16 06:42:42;;;;;;;5.87;1.35;;;;;;;1.77;100.00;101002.72;1824066;78;21761;-90
2022/01/16 06:45:11;;;;;;;2.30;1.00;;;;;;;1.83;100.00;101011.77;1824060;78;21028;-90
2022/01/16 06:47:36;;;;;;;5.95;1.07;;;;;;;1.91;100.00;101013.44;1824219;78;21027;-91
2022/01/16 06:50:05;;;;;;;5.37;1.22;;;;;;;1.96;100.00;101009.20;1820342;78;20971;-91
2022/01/16 06:52:35;;;;;;;6.10;1.27;;;;;;;2.01;100.00;101008.12;1811307;77;21054;-91
2022/01/16 06:55:01;;;;;;;3.58;1.65;;;;;;;2.12;100.00;101005.93;1799314;78;21246;-92
2022/01/16 06:57:27;;;;;;;6.15;1.20;;;;;;;2.19;100.00;101010.80;1812031;77;21070;-92
2022/01/16 06:59:53;;;;;;;2.47;1.20;;;;;;;2.26;100.00;101011.66;1813600;77;20981;-92
2022/01/16 07:02:27;;;;;;;2.75;1.10;;;;;;;2.30;100.00;101022.23;1824651;77;21291;-90
2022/01/16 07:04:52;;;;;;;3.98;1.15;;;;;;;2.38;100.00;101025.23;1820310;77;21125;-92
2022/01/16 07:07:18;;;;;;;2.77;0.90;;;;;;;2.46;100.00;101029.08;1773389;78;22286;-89
2022/01/16 07:09:48;;;;;;;5.22;1.50;;;;;;;2.50;100.00;101032.48;1821685;78;21023;-91
2022/01/16 07:12:14;;;;;;;2.50;1.02;;;;;;;2.49;100.00;101026.84;1797326;77;21058;-92
2022/01/16 07:14:43;;;;;;;2.75;0.90;;;;;;;2.53;100.00;101031.28;1826308;78;20976;-90
2022/01/16 07:17:09;;;;;;;6.75;1.50;;;;;;;2.55;100.00;101033.73;1769863;79;21191;-91
2022/01/16 07:19:36;;;;;;;3.90;1.20;;;;;;;2.54;100.00;101038.23;1771335;81;21124;-92
2022/01/16 07:22:02;;;;;;;5.12;1.15;;;;;;;2.54;100.00;101044.88;1759660;80;21113;-89
2022/01/16 07:24:28;;;;;;;2.20;1.00;;;;;;;2.57;100.00;101045.00;1771126;80;21110;-89
2022/01/16 07:26:54;;;;;;;3.33;1.27;;;;;;;2.60;100.00;101050.75;1742757;81;21594;-89
2022/01/16 07:29:21;;;;;;;3.90;1.30;;;;;;;2.63;100.00;101063.66;1770117;81;21042;-90
2022/01/16 07:31:47;;;;;;;3.27;1.20;;;;;;;2.61;100.00;101054.23;1770218;81;21132;-90
2022/01/16 07:34:13;;;;;;;2.83;1.20;;;;;;;2.57;100.00;101068.44;1769891;81;21068;-89
2022/01/16 07:39:10;;;;;;;3.83;1.45;;;;;;;2.57;100.00;101075.59;1717184;83;21696;-88
2022/01/16 07:41:39;;;;;;;2.37;1.02;;;;;;;2.60;100.00;101080.02;1708256;81;21442;-90
2022/01/16 07:44:05;;;;;;;2.90;1.30;;;;;;;2.63;100.00;101086.27;1767427;80;21073;-88
2022/01/16 07:46:33;;;;;;;3.15;1.20;;;;;;;2.62;100.00;101084.64;1770209;79;21060;-91
2022/01/16 07:48:59;;;;;;;3.22;1.10;;;;;;;2.61;100.00;101080.83;1758630;81;21056;-89
2022/01/16 07:51:29;;;;;;;4.50;1.30;;;;;;;2.62;100.00;101089.15;1770281;81;21025;-88
2022/01/16 07:56:36;;;;;;;4.80;1.12;;;;;;;2.63;100.00;101092.11;1550373;92;21112;-89
2022/01/16 07:59:02;;;;;;;6.55;1.52;;;;;;;2.65;100.00;101094.89;1527382;93;21261;-87
2022/01/16 08:01:29;;;;;;;4.33;1.05;;;;;;;2.67;100.00;101100.81;1527152;93;21065;-90
2022/01/16 08:04:12;;;;;;;;;;;;;;;;;;;;;
2022/01/16 08:06:32;;;;;;;4.83;1.52;;;;;;;2.69;100.00;101105.45;1487204;96;21136;-90
2022/01/16 08:09:00;;;;;;;3.58;1.12;;;;;;;2.75;100.00;101104.36;1473669;97;21192;-90
2022/01/16 08:11:26;;;;;;;3.80;1.45;;;;;;;2.82;100.00;101103.88;1456180;98;21153;-91
2022/01/16 08:13:55;;;;;;;5.97;1.20;;;;;;;2.89;100.00;101110.08;1456599;98;21143;-90
2022/01/16 08:16:21;;;;;;;2.95;1.15;;;;;;;2.91;100.00;101116.00;1456801;97;21559;-92
2022/01/16 08:18:47;;;;;;;4.53;1.20;;;;;;;2.87;100.00;101128.08;1456767;98;21145;-90
2022/01/16 08:21:17;;;;;;;3.75;1.20;;;;;;;2.86;100.00;101125.11;1456553;98;21885;-93
2022/01/16 08:23:43;;;;;;;4.47;1.20;;;;;;;2.85;100.00;101124.27;1412868;100;21169;-90
2022/01/16 08:26:09;;;;;;;2.12;1.10;;;;;;;2.87;100.00;101125.41;1413244;101;21225;-91
2022/01/16 08:28:35;;;;;;;2.83;1.00;;;;;;;2.90;100.00;101128.50;1413742;101;21727;-92
2022/01/16 08:31:01;;;;;;;4.40;1.47;;;;;;;2.87;100.00;101134.22;1384941;101;21148;-91
2022/01/16 08:33:27;;;;;;;1.95;0.82;;;;;;;2.85;100.00;101134.91;1380915;103;21187;-91
2022/01/16 08:35:54;;;;;;;3.17;1.02;;;;;;;2.88;100.00;101129.70;1359251;105;21212;-92
2022/01/16 08:38:22;;;;;;;1.90;0.90;;;;;;;2.89;100.00;101129.53;1388856;102;21061;-91
2022/01/16 08:40:48;;;;;;;3.15;1.10;;;;;;;2.91;100.00;101128.83;1395249;102;21222;-89
2022/01/16 08:43:14;;;;;;;3.83;1.10;;;;;;;2.93;100.00;101132.09;1395527;102;21098;-91
2022/01/16 08:45:43;;;;;;;4.67;1.50;;;;;;;2.91;100.00;101138.63;1395242;102;21921;-91
2022/01/16 08:48:21;;;;;;;;;;;;;;;;;;;;;
2022/01/16 08:50:39;;;;;;;3.55;1.37;;;;;;;3.00;100.00;101139.30;1380798;103;21289;-91
2022/01/16 08:53:06;;;;;;;8.78;1.02;;;;;;;3.06;100.00;101143.35;1431891;93;21125;-90
2022/01/16 08:55:34;;;;;;;4.00;1.00;;;;;;;3.11;100.00;101148.89;1520379;94;21057;-92
2022/01/16 08:58:07;;;;;;;3.30;1.10;;;;;;;3.21;100.00;101151.70;1521978;92;21227;-93
2022/01/16 09:00:32;;;;;;;4.00;1.37;;;;;;;3.24;100.00;101149.48;1482174;95;21118;-91
2022/01/16 09:02:58;;;;;;;2.77;1.10;;;;;;;3.21;100.00;101146.38;1486560;96;21541;-88
2022/01/16 09:05:26;;;;;;;5.12;1.30;;;;;;;3.25;100.00;101144.98;1495114;94;21331;-90
2022/01/16 09:07:52;;;;;;;3.85;1.50;;;;;;;3.15;100.00;101144.02;1522430;93;21214;-91
2022/01/16 09:10:19;;;;;;;4.47;1.17;;;;;;;3.09;100.00;101137.63;1506324;94;21116;-89
2022/01/16 09:12:50;;;;;;;6.58;1.47;;;;;;;3.08;100.00;101133.30;1494651;95;21951;-87
2022/01/16 09:15:16;;;;;;;3.83;1.20;;;;;;;3.10;100.00;101132.61;1498503;95;21108;-89
2022/01/16 09:17:53;;;;;;;4.17;1.15;;;;;;;3.10;100.00;101129.13;1495778;95;21107;-88
2022/01/16 09:20:22;;;;;;;3.55;1.20;;;;;;;3.12;100.00;101131.09;1513659;93;21559;-88
2022/01/16 09:22:49;;;;;;;5.05;1.70;;;;;;;3.13;100.00;101124.23;1588357;90;21359;-89
2022/01/16 09:25:20;;;;;;;5.37;1.47;;;;;;;3.14;100.00;101131.19;1583682;90;21121;-88
2022/01/16 09:27:49;;;;;;;4.37;1.40;;;;;;;3.08;100.00;101131.16;1584374;90;21109;-88
2022/01/16 09:30:16;;;;;;;3.72;1.45;;;;;;;3.05;100.00;101136.36;1584700;90;21196;-89
2022/01/16 09:32:43;;;;;;;4.17;1.85;;;;;;;3.07;100.00;101124.20;1584879;90;21608;-88
2022/01/16 09:35:10;;;;;;;4.67;1.70;;;;;;;3.10;100.00;101125.14;1564648;90;21188;-90
2022/01/16 09:37:37;;;;;;;4.60;1.50;;;;;;;3.14;100.00;101132.52;1585313;90;21141;-88
2022/01/16 09:40:06;;;;;;;7.25;1.62;;;;;;;3.26;100.00;101131.95;1585445;90;21101;-88
2022/01/16 09:42:34;;;;;;;5.72;1.57;;;;;;;3.32;100.00;101119.99;1585030;90;21133;-88
2022/01/16 09:45:02;;;;;;;4.72;1.35;;;;;;;3.37;100.00;101130.88;1525105;92;21124;-89
2022/01/16 09:47:28;;;;;;;4.62;1.17;;;;;;;3.45;100.00;101130.41;1563195;91;21136;-89
2022/01/16 09:49:54;;;;;;;5.62;1.40;;;;;;;3.54;100.00;101115.89;1547773;92;21770;-89
2022/01/16 09:52:20;;;;;;;3.50;1.22;;;;;;;3.57;100.00;101121.63;1560308;91;21698;-88
2022/01/16 09:54:46;;;;;;;4.05;1.30;;;;;;;3.52;100.00;101115.26;1560089;90;21069;-89
2022/01/16 09:57:13;;;;;;;6.12;1.75;;;;;;;3.54;100.00;101115.89;1573973;90;21639;-90
2022/01/16 09:59:55;;;;;;;;;;;;;;;;;;;;;
2022/01/16 10:02:12;;;;;;;;;;;;;;;3.46;100.00;101114.73;1557431;92;21426;-88
2022/01/16 10:04:42;;;;;;;4.33;1.37;;;;;;;3.50;100.00;101107.48;1555659;92;20269;-87
2022/01/16 10:07:12;;;;;;;4.58;1.37;;;;;;;3.48;100.00;101104.70;1555717;92;21141;-95
2022/01/16 10:09:44;;;;;;;11.05;3.95;;;;;;;3.44;100.00;101102.92;1555407;92;21136;-95
2022/01/16 10:12:17;;;;;;;4.78;2.00;;;;;;;3.45;100.00;101103.26;1554674;92;21161;-91
2022/01/16 10:14:57;;;;;;;;;;;;;;;;;;;;;
2022/01/16 10:17:24;;;;;;;15.48;4.83;;;;;;;3.44;100.00;101100.78;1475918;97;21091;-90
2022/01/16 10:20:07;;;;;;;7.20;2.35;;;;;;;3.44;100.00;101110.10;1432867;100;21137;-89
2022/01/16 10:22:43;;;;;;;6.80;2.08;;;;;;;3.51;100.00;101112.30;1435082;99;21632;-90
2022/01/16 10:25:11;;;;;;;5.47;1.60;;;;;;;3.58;100.00;101116.60;1427572;97;21987;-90
2022/01/16 10:27:44;;;;;;;5.95;1.65;;;;;;;3.63;100.00;101115.50;1438032;98;21095;-89
2022/01/16 10:30:14;;;;;;;5.25;1.62;;;;;;;3.62;100.00;101111.20;1455138;98;21079;-91
2022/01/16 10:32:46;;;;;;;6.28;1.87;;;;;;;3.69;100.00;101121.87;1457729;97;21092;-88
2022/01/16 10:35:21;;;;;;;9.57;2.57;;;;;;;3.79;100.00;101124.95;1492285;96;21154;-86
2022/01/16 10:37:54;;;;;;;5.00;1.87;;;;;;;3.82;100.00;101121.06;1492659;95;21118;-88
2022/01/16 10:40:27;;;;;;;11.63;2.50;;;;;;;3.82;100.00;101115.73;1492299;96;21143;-87
2022/01/16 10:42:58;;;;;;;7.53;1.65;;;;;;;3.81;100.00;101118.11;1439999;98;21176;-87
2022/01/16 10:45:29;;;;;;;8.03;1.98;;;;;;;3.77;100.00;101124.36;1478625;95;21102;-89
2022/01/16 10:48:01;;;;;;;3.75;1.27;;;;;;;3.74;100.00;101131.94;1504060;91;21036;-89
2022/01/16 10:50:35;;;;;;;5.33;1.75;;;;;;;3.68;100.00;101130.05;1550093;92;21827;-86
2022/01/16 10:53:08;;;;;;;9.20;1.90;;;;;;;3.62;100.00;101129.86;1548066;91;21105;-87
2022/01/16 10:55:53;;;;;;;6.75;1.92;;;;;;;3.66;100.00;101132.12;1562942;91;21155;-87
2022/01/16 11:01:18;;;;;;;8.53;2.20;;;;;;;3.70;100.00;101127.50;1458017;98;21112;-87
2022/01/16 11:03:49;;;;;;;3.90;1.75;;;;;;;3.70;100.00;101129.34;1459924;97;21261;-86
2022/01/16 11:06:18;;;;;;;14.03;5.42;;;;;;;3.70;100.00;101128.02;1487718;94;21111;-87
2022/01/16 11:08:56;;;;;;;16.97;6.17;;;;;;;3.72;100.00;101125.98;1521776;93;21557;-84
2022/01/16 11:11:25;;;;;;;15.05;5.25;;;;;;;3.65;100.00;101135.30;1522007;93;21062;-85
2022/01/16 11:13:51;;;;;;;46.83;17.37;;;;;;;3.72;100.00;101129.46;1521926;94;21649;-87
2022/01/16 11:16:17;;;;;;;32.25;9.18;;;;;;;3.74;100.00;101130.09;1525738;94;21197;-86
2022/01/16 11:18:51;;;;;;;40.98;11.68;;;;;;;3.74;100.00;101127.95;1525372;94;21057;-86
2022/01/16 11:21:30;;;;;;;8.08;2.17;;;;;;;3.77;100.00;101135.54;1525477;94;21626;-85
2022/01/16 11:26:22;;;;;;;5.42;1.42;;;;;;;3.92;100.00;101126.03;1520908;94;21581;-88
2022/01/16 11:28:55;;;;;;;9.50;1.32;;;;;;;4.05;100.00;101126.03;1519633;93;21305;-89
2022/01/16 11:31:22;;;;;;;4.67;1.00;;;;;;;4.15;100.00;101117.63;1500554;94;21678;-88
2022/01/16 11:33:48;;;;;;;4.75;1.10;;;;;;;4.25;100.00;101119.39;1516375;94;21113;-90
2022/01/16 11:36:19;;;;;;;7.05;1.37;;;;;;;4.35;100.00;101117.12;1522179;93;21092;-90
2022/01/16 11:38:58;;;;;;;7.62;1.60;;;;;;;4.45;100.00;101124.20;1563707;84;21613;-87
2022/01/16 11:41:40;;;;;;;10.15;3.15;;;;;;;4.46;100.00;101123.17;1697934;84;21166;-89
2022/01/16 11:44:18;;;;;;;3.98;1.50;;;;;;;4.48;100.00;101124.31;1696247;84;21047;-88
2022/01/16 11:46:49;;;;;;;5.47;1.77;;;;;;;4.48;100.00;101126.47;1613834;87;21708;-89
2022/01/16 11:51:51;;;;;;;16.87;5.28;;;;;;;4.53;100.00;101133.34;1513813;94;21105;-88
2022/01/16 11:54:31;;;;;;;8.95;3.35;;;;;;;4.52;100.00;101132.20;1515627;94;21429;-88
2022/01/16 11:57:03;;;;;;;6.03;2.10;;;;;;;4.50;100.00;101136.43;1469699;96;21164;-88
2022/01/16 11:59:42;;;;;;;4.25;1.12;;;;;;;4.51;100.00;101143.92;1494090;96;21132;-88
2022/01/16 12:02:15;;;;;;;2.25;0.95;;;;;;;4.41;100.00;101146.16;1494371;96;21105;-88
2022/01/16 12:04:54;;;;;;;2.67;0.90;;;;;;;4.35;100.00;101145.13;1494022;95;21112;-89
2022/01/16 12:07:26;;;;;;;4.92;0.90;;;;;;;4.32;100.00;101151.72;1429160;100;21722;-89
2022/01/16 12:09:57;;;;;;;4.95;1.15;;;;;;;4.16;100.00;101160.11;1429138;100;21201;-88
2022/01/16 12:12:27;;;;;;;3.33;0.80;;;;;;;4.04;100.00;101159.89;1400928;102;21230;-88
2022/01/16 12:15:11;;;;;;;1.85;0.82;;;;;;;4.00;100.00;101163.14;1412678;101;21621;-87
2022/01/16 12:17:45;;;;;;;5.17;0.90;;;;;;;3.82;100.00;101142.39;1413034;101;21716;-87
2022/01/16 12:23:04;;;;;;;4.80;1.45;;;;;;;3.92;100.00;101161.51;1392896;102;21187;-87
2022/01/16 12:25:40;;;;;;;5.15;1.12;;;;;;;3.95;100.00;101169.11;1465807;96;21573;-89
2022/01/16 12:28:12;;;;;;;2.65;1.00;;;;;;;3.98;100.00;101159.88;1466725;96;21204;-88
2022/01/16 12:31:02;;;;;;;3.60;0.90;;;;;;;3.94;100.00;101162.14;1466740;97;21143;-88
2022/01/16 12:33:42;;;;;;;2.87;1.20;;;;;;;3.90;100.00;101166.21;1466502;97;21323;-88
2022/01/16 12:36:18;;;;;;;6.78;1.40;;;;;;;3.87;100.00;101171.95;1466360;97;21572;-87
2022/01/16 12:38:52;;;;;;;4.45;1.25;;;;;;;3.81;100.00;101178.90;1449109;97;21102;-88
2022/01/16 12:41:34;;;;;;;4.35;1.35;;;;;;;3.77;100.00;101176.85;1449170;97;21040;-87